sensor_id;sensor_type;location;lat;lon;timestamp;pressure;altitude;pressure_sealevel;temperature;humidity
55490;BME280;44029;52.956;4.772;2023-05-03T00:02:13;103115.84;;;10.49;100.00
55490;BME280;44029;52.956;4.772;2023-05-03T00:04:40;103115.00;;;10.48;100.00
55490;BME280;44029;52.956;4.772;2023-05-03T00:07:06;103111.19;;;10.49;100.00
55490;BME280;44029;52.956;4.772;2023-05-03T00:09:34;103120.91;;;10.67;100.00
55490;BME280;44029;52.956;4.772;2023-05-03T00:12:00;103121.13;;;10.50;100.00
55490;BME280;44029;52.956;4.772;2023-05-03T00:14:26;103105.72;;;10.49;100.00
55490;BME280;44029;52.956;4.772;2023-05-03T00:16:51;103123.31;;;10.40;100.00
55490;BME280;44029;52.956;4.772;2023-05-03T00:19:16;103120.94;;;10.52;100.00
55490;BME280;44029;52.956;4.772;2023-05-03T00:21:43;103120.75;;;10.53;100.00
55490;BME280;44029;52.956;4.772;2023-05-03T00:24:09;103125.69;;;10.43;100.00
55490;BME280;44029;52.956;4.772;2023-05-03T00:26:34;103120.22;;;10.43;100.00
55490;BME280;44029;52.956;4.772;2023-05-03T00:28:59;103126.88;;;10.55;100.00
55490;BME280;44029;52.956;4.772;2023-05-03T00:31:25;103122.13;;;10.64;100.00
55490;BME280;44029;52.956;4.772;2023-05-03T00:33:50;103127.91;;;10.54;100.00
55490;BME280;44029;52.956;4.772;2023-05-03T00:36:16;103123.69;;;10.52;100.00
55490;BME280;44029;52.956;4.772;2023-05-03T00:38:41;103124.00;;;10.63;100.00
55490;BME280;44029;52.956;4.772;2023-05-03T00:41:09;103123.88;;;10.93;100.00
55490;BME280;44029;52.956;4.772;2023-05-03T00:43:35;103121.78;;;10.52;100.00
55490;BME280;44029;52.956;4.772;2023-05-03T00:46:02;103122.84;;;10.73;100.00
55490;BME280;44029;52.956;4.772;2023-05-03T00:48:29;103120.47;;;10.48;100.00
55490;BME280;44029;52.956;4.772;2023-05-03T00:50:57;103123.13;;;10.78;100.00
55490;BME280;44029;52.956;4.772;2023-05-03T00:53:22;103122.44;;;10.54;100.00
55490;BME280;44029;52.956;4.772;2023-05-03T00:55:51;103115.47;;;10.73;100.00
55490;BME280;44029;52.956;4.772;2023-05-03T00:58:16;103119.84;;;10.46;100.00
55490;BME280;44029;52.956;4.772;2023-05-03T01:00:42;103124.19;;;10.62;100.00
55490;BME280;44029;52.956;4.772;2023-05-03T01:03:07;103123.03;;;10.71;100.00
55490;BME280;44029;52.956;4.772;2023-05-03T01:05:43;103124.94;;;10.92;100.00
55490;BME280;44029;52.956;4.772;2023-05-03T01:08:24;103126.31;;;11.03;100.00
55490;BME280;44029;52.956;4.772;2023-05-03T01:11:01;103124.59;;;10.80;100.00
55490;BME280;44029;52.956;4.772;2023-05-03T01:16:32;103120.75;;;10.96;100.00
55490;BME280;44029;52.956;4.772;2023-05-03T01:19:03;103109.72;;;10.90;100.00
55490;BME280;44029;52.956;4.772;2023-05-03T01:21:32;103110.56;;;10.69;100.00
55490;BME280;44029;52.956;4.772;2023-05-03T01:24:12;103107.88;;;10.97;100.00
55490;BME280;44029;52.956;4.772;2023-05-03T01:26:37;103103.97;;;10.63;100.00
55490;BME280;44029;52.956;4.772;2023-05-03T01:29:04;103088.75;;;10.60;100.00
55490;BME280;44029;52.956;4.772;2023-05-03T01:32:18;103095.16;;;10.68;100.00
55490;BME280;44029;52.956;4.772;2023-05-03T01:34:32;103080.28;;;10.55;100.00
55490;BME280;44029;52.956;4.772;2023-05-03T01:36:59;103083.75;;;10.64;100.00
55490;BME280;44029;52.956;4.772;2023-05-03T01:42:13;103078.09;;;10.29;100.00
55490;BME280;44029;52.956;4.772;2023-05-03T01:44:40;103066.56;;;10.34;100.00
55490;BME280;44029;52.956;4.772;2023-05-03T01:47:07;103066.66;;;10.40;100.00
55490;BME280;44029;52.956;4.772;2023-05-03T01:49:32;103063.19;;;10.53;100.00
55490;BME280;44029;52.956;4.772;2023-05-03T01:51:59;103059.75;;;10.30;100.00
55490;BME280;44029;52.956;4.772;2023-05-03T01:54:25;103060.53;;;10.23;100.00
55490;BME280;44029;52.956;4.772;2023-05-03T01:56:50;103057.78;;;10.38;100.00
55490;BME280;44029;52.956;4.772;2023-05-03T01:59:15;103055.06;;;10.23;100.00
55490;BME280;44029;52.956;4.772;2023-05-03T02:01:41;103046.03;;;10.44;100.00
55490;BME280;44029;52.956;4.772;2023-05-03T02:04:06;103051.25;;;10.39;100.00
55490;BME280;44029;52.956;4.772;2023-05-03T02:06:32;103046.09;;;10.15;100.00
55490;BME280;44029;52.956;4.772;2023-05-03T02:08:57;103037.69;;;10.31;100.00
55490;BME280;44029;52.956;4.772;2023-05-03T02:11:22;103042.31;;;10.16;100.00
55490;BME280;44029;52.956;4.772;2023-05-03T02:13:48;103034.47;;;10.49;100.00
55490;BME280;44029;52.956;4.772;2023-05-03T02:16:17;103043.59;;;10.56;100.00
55490;BME280;44029;52.956;4.772;2023-05-03T02:18:42;103039.16;;;10.34;100.00
55490;BME280;44029;52.956;4.772;2023-05-03T02:21:09;103042.81;;;10.41;100.00
55490;BME280;44029;52.956;4.772;2023-05-03T02:23:34;103050.50;;;10.31;100.00
55490;BME280;44029;52.956;4.772;2023-05-03T02:26:00;103050.13;;;10.34;100.00
55490;BME280;44029;52.956;4.772;2023-05-03T02:28:26;103051.50;;;10.44;100.00
55490;BME280;44029;52.956;4.772;2023-05-03T02:30:51;103063.25;;;10.38;100.00
55490;BME280;44029;52.956;4.772;2023-05-03T02:33:16;103056.19;;;10.51;100.00
55490;BME280;44029;52.956;4.772;2023-05-03T02:35:42;103067.13;;;10.44;100.00
55490;BME280;44029;52.956;4.772;2023-05-03T02:38:07;103070.31;;;10.48;100.00
55490;BME280;44029;52.956;4.772;2023-05-03T02:40:32;103067.75;;;10.46;100.00
55490;BME280;44029;52.956;4.772;2023-05-03T02:42:58;103074.69;;;10.42;100.00
55490;BME280;44029;52.956;4.772;2023-05-03T02:45:23;103080.22;;;10.49;100.00
55490;BME280;44029;52.956;4.772;2023-05-03T02:47:49;103076.19;;;10.30;100.00
55490;BME280;44029;52.956;4.772;2023-05-03T02:50:14;103081.84;;;10.28;100.00
55490;BME280;44029;52.956;4.772;2023-05-03T02:52:39;103084.72;;;10.35;100.00
55490;BME280;44029;52.956;4.772;2023-05-03T02:55:05;103085.44;;;10.29;100.00
55490;BME280;44029;52.956;4.772;2023-05-03T02:57:31;103081.19;;;10.41;100.00
55490;BME280;44029;52.956;4.772;2023-05-03T02:59:56;103083.69;;;10.57;100.00
55490;BME280;44029;52.956;4.772;2023-05-03T03:02:21;103091.69;;;10.37;100.00
55490;BME280;44029;52.956;4.772;2023-05-03T03:04:47;103094.50;;;10.44;100.00
55490;BME280;44029;52.956;4.772;2023-05-03T03:07:12;103095.53;;;10.43;100.00
55490;BME280;44029;52.956;4.772;2023-05-03T03:09:37;103102.13;;;10.49;100.00
55490;BME280;44029;52.956;4.772;2023-05-03T03:12:03;103095.09;;;10.39;100.00
55490;BME280;44029;52.956;4.772;2023-05-03T03:14:29;103095.22;;;10.31;100.00
55490;BME280;44029;52.956;4.772;2023-05-03T03:16:54;103088.19;;;10.29;100.00
55490;BME280;44029;52.956;4.772;2023-05-03T03:19:20;103092.81;;;10.43;100.00
55490;BME280;44029;52.956;4.772;2023-05-03T03:21:45;103090.81;;;10.52;100.00
55490;BME280;44029;52.956;4.772;2023-05-03T03:24:11;103091.91;;;10.57;100.00
55490;BME280;44029;52.956;4.772;2023-05-03T03:26:36;103086.16;;;10.52;100.00
55490;BME280;44029;52.956;4.772;2023-05-03T03:29:01;103090.00;;;10.58;100.00
55490;BME280;44029;52.956;4.772;2023-05-03T03:31:27;103083.63;;;10.72;100.00
55490;BME280;44029;52.956;4.772;2023-05-03T03:33:52;103096.03;;;10.68;100.00
55490;BME280;44029;52.956;4.772;2023-05-03T03:36:17;103088.00;;;10.67;100.00
55490;BME280;44029;52.956;4.772;2023-05-03T03:38:43;103088.16;;;10.43;100.00
55490;BME280;44029;52.956;4.772;2023-05-03T03:41:08;103092.28;;;10.33;100.00
55490;BME280;44029;52.956;4.772;2023-05-03T03:43:33;103093.59;;;10.37;100.00
55490;BME280;44029;52.956;4.772;2023-05-03T03:45:59;103094.50;;;10.44;100.00
55490;BME280;44029;52.956;4.772;2023-05-03T03:48:24;103098.00;;;10.38;100.00
55490;BME280;44029;52.956;4.772;2023-05-03T03:50:50;103098.88;;;10.60;100.00
55490;BME280;44029;52.956;4.772;2023-05-03T03:53:16;103094.25;;;10.60;100.00
55490;BME280;44029;52.956;4.772;2023-05-03T03:55:41;103092.56;;;10.59;100.00
55490;BME280;44029;52.956;4.772;2023-05-03T03:58:07;103094.88;;;10.41;100.00
55490;BME280;44029;52.956;4.772;2023-05-03T04:00:33;103101.16;;;10.56;100.00
55490;BME280;44029;52.956;4.772;2023-05-03T04:03:00;103105.84;;;10.41;100.00
55490;BME280;44029;52.956;4.772;2023-05-03T04:05:25;103101.09;;;10.50;100.00
55490;BME280;44029;52.956;4.772;2023-05-03T04:07:51;103108.72;;;10.54;100.00
55490;BME280;44029;52.956;4.772;2023-05-03T04:10:16;103105.66;;;10.42;100.00
55490;BME280;44029;52.956;4.772;2023-05-03T04:12:41;103095.16;;;10.46;100.00
55490;BME280;44029;52.956;4.772;2023-05-03T04:15:07;103103.91;;;10.56;100.00
55490;BME280;44029;52.956;4.772;2023-05-03T04:17:33;103095.03;;;10.54;100.00
55490;BME280;44029;52.956;4.772;2023-05-03T04:20:00;103095.44;;;10.51;100.00
55490;BME280;44029;52.956;4.772;2023-05-03T04:22:27;103089.63;;;10.61;100.00
55490;BME280;44029;52.956;4.772;2023-05-03T04:24:55;103095.53;;;10.43;100.00
55490;BME280;44029;52.956;4.772;2023-05-03T04:27:20;103089.69;;;10.46;100.00
55490;BME280;44029;52.956;4.772;2023-05-03T04:29:45;103090.19;;;10.56;100.00
55490;BME280;44029;52.956;4.772;2023-05-03T04:32:13;103096.09;;;10.53;100.00
55490;BME280;44029;52.956;4.772;2023-05-03T04:34:38;103097.66;;;10.62;100.00
55490;BME280;44029;52.956;4.772;2023-05-03T04:37:04;103088.50;;;10.77;100.00
55490;BME280;44029;52.956;4.772;2023-05-03T04:39:29;103081.72;;;10.73;100.00
55490;BME280;44029;52.956;4.772;2023-05-03T04:41:56;103082.81;;;10.78;100.00
55490;BME280;44029;52.956;4.772;2023-05-03T04:44:22;103087.00;;;10.74;100.00
55490;BME280;44029;52.956;4.772;2023-05-03T04:46:47;103087.00;;;10.74;100.00
55490;BME280;44029;52.956;4.772;2023-05-03T04:49:13;103084.16;;;10.61;100.00
55490;BME280;44029;52.956;4.772;2023-05-03T04:51:39;103082.50;;;10.67;100.00
55490;BME280;44029;52.956;4.772;2023-05-03T04:54:04;103083.75;;;10.64;100.00
55490;BME280;44029;52.956;4.772;2023-05-03T04:56:30;103084.06;;;10.54;100.00
55490;BME280;44029;52.956;4.772;2023-05-03T04:58:55;103089.53;;;10.54;100.00
55490;BME280;44029;52.956;4.772;2023-05-03T05:01:21;103091.44;;;10.54;100.00
55490;BME280;44029;52.956;4.772;2023-05-03T05:03:51;103087.91;;;10.60;100.00
55490;BME280;44029;52.956;4.772;2023-05-03T05:06:17;103088.38;;;10.85;100.00
55490;BME280;44029;52.956;4.772;2023-05-03T05:08:42;103090.75;;;10.67;100.00
55490;BME280;44029;52.956;4.772;2023-05-03T05:11:07;103094.13;;;10.69;100.00
55490;BME280;44029;52.956;4.772;2023-05-03T05:13:33;103097.13;;;10.74;100.00
55490;BME280;44029;52.956;4.772;2023-05-03T05:15:58;103104.56;;;10.80;100.00
55490;BME280;44029;52.956;4.772;2023-05-03T05:18:23;103110.31;;;10.85;100.00
55490;BME280;44029;52.956;4.772;2023-05-03T05:20:49;103105.09;;;10.90;100.00
55490;BME280;44029;52.956;4.772;2023-05-03T05:23:14;103103.91;;;10.78;100.00
55490;BME280;44029;52.956;4.772;2023-05-03T05:25:40;103118.09;;;10.81;100.00
55490;BME280;44029;52.956;4.772;2023-05-03T05:28:05;103116.97;;;10.76;100.00
55490;BME280;44029;52.956;4.772;2023-05-03T05:30:30;103116.19;;;11.03;100.00
55490;BME280;44029;52.956;4.772;2023-05-03T05:32:56;103115.53;;;11.01;100.00
55490;BME280;44029;52.956;4.772;2023-05-03T05:35:21;103109.44;;;11.06;100.00
55490;BME280;44029;52.956;4.772;2023-05-03T05:37:47;103115.78;;;11.07;100.00
55490;BME280;44029;52.956;4.772;2023-05-03T05:40:12;103121.34;;;11.13;100.00
55490;BME280;44029;52.956;4.772;2023-05-03T05:42:37;103110.91;;;10.80;100.00
55490;BME280;44029;52.956;4.772;2023-05-03T05:45:03;103118.53;;;10.63;100.00
55490;BME280;44029;52.956;4.772;2023-05-03T05:47:29;103110.50;;;10.83;100.00
55490;BME280;44029;52.956;4.772;2023-05-03T05:49:55;103107.03;;;10.96;100.00
55490;BME280;44029;52.956;4.772;2023-05-03T05:52:20;103111.53;;;11.04;100.00
55490;BME280;44029;52.956;4.772;2023-05-03T05:54:46;103116.81;;;11.27;100.00
55490;BME280;44029;52.956;4.772;2023-05-03T05:57:11;103111.66;;;11.17;100.00
55490;BME280;44029;52.956;4.772;2023-05-03T05:59:37;103114.44;;;10.96;100.00
55490;BME280;44029;52.956;4.772;2023-05-03T06:02:03;103135.13;;;10.98;100.00
55490;BME280;44029;52.956;4.772;2023-05-03T06:04:29;103133.88;;;10.79;100.00
55490;BME280;44029;52.956;4.772;2023-05-03T06:06:54;103122.84;;;10.73;100.00
55490;BME280;44029;52.956;4.772;2023-05-03T06:09:19;103125.19;;;10.76;100.00
55490;BME280;44029;52.956;4.772;2023-05-03T06:11:45;103135.66;;;10.87;100.00
55490;BME280;44029;52.956;4.772;2023-05-03T06:14:10;103124.41;;;11.03;100.00
55490;BME280;44029;52.956;4.772;2023-05-03T06:16:36;103124.34;;;10.97;100.00
55490;BME280;44029;52.956;4.772;2023-05-03T06:19:02;103119.41;;;11.35;100.00
55490;BME280;44029;52.956;4.772;2023-05-03T06:21:29;103130.53;;;11.27;100.00
55490;BME280;44029;52.956;4.772;2023-05-03T06:23:55;103134.88;;;11.43;100.00
55490;BME280;44029;52.956;4.772;2023-05-03T06:26:20;103127.41;;;11.65;100.00
55490;BME280;44029;52.956;4.772;2023-05-03T06:28:47;103127.63;;;11.07;100.00
55490;BME280;44029;52.956;4.772;2023-05-03T06:31:14;103137.34;;;11.10;100.00
55490;BME280;44029;52.956;4.772;2023-05-03T06:33:40;103124.34;;;11.18;100.00
55490;BME280;44029;52.956;4.772;2023-05-03T06:36:05;103132.75;;;11.17;100.00
55490;BME280;44029;52.956;4.772;2023-05-03T06:38:32;103115.38;;;11.94;100.00
55490;BME280;44029;52.956;4.772;2023-05-03T06:40:58;103116.94;;;12.17;100.00
55490;BME280;44029;52.956;4.772;2023-05-03T06:43:23;103119.22;;;11.44;100.00
55490;BME280;44029;52.956;4.772;2023-05-03T06:45:50;103111.81;;;12.01;100.00
55490;BME280;44029;52.956;4.772;2023-05-03T06:48:17;103113.31;;;11.75;100.00
55490;BME280;44029;52.956;4.772;2023-05-03T06:50:42;103117.38;;;11.79;100.00
55490;BME280;44029;52.956;4.772;2023-05-03T06:53:08;103110.56;;;12.10;100.00
55490;BME280;44029;52.956;4.772;2023-05-03T06:55:33;103115.75;;;11.91;100.00
55490;BME280;44029;52.956;4.772;2023-05-03T06:57:58;103113.53;;;14.99;98.82
55490;BME280;44029;52.956;4.772;2023-05-03T07:00:24;103105.22;;;15.74;85.62
55490;BME280;44029;52.956;4.772;2023-05-03T07:02:50;103106.56;;;16.20;77.22
55490;BME280;44029;52.956;4.772;2023-05-03T07:05:15;103100.00;;;16.03;73.95
55490;BME280;44029;52.956;4.772;2023-05-03T07:07:41;103104.75;;;13.93;79.01
55490;BME280;44029;52.956;4.772;2023-05-03T07:10:06;103111.00;;;12.95;88.64
55490;BME280;44029;52.956;4.772;2023-05-03T07:12:32;103124.28;;;12.71;93.88
55490;BME280;44029;52.956;4.772;2023-05-03T07:14:57;103106.75;;;12.86;95.18
55490;BME280;44029;52.956;4.772;2023-05-03T07:17:23;103115.88;;;13.06;98.83
55490;BME280;44029;52.956;4.772;2023-05-03T07:19:50;103116.69;;;12.67;100.00
55490;BME280;44029;52.956;4.772;2023-05-03T07:22:16;103116.19;;;12.43;100.00
55490;BME280;44029;52.956;4.772;2023-05-03T07:24:42;103118.06;;;12.36;100.00
55490;BME280;44029;52.956;4.772;2023-05-03T07:27:07;103117.78;;;12.17;100.00
55490;BME280;44029;52.956;4.772;2023-05-03T07:29:33;103121.16;;;12.13;100.00
55490;BME280;44029;52.956;4.772;2023-05-03T07:31:58;103114.72;;;11.92;100.00
55490;BME280;44029;52.956;4.772;2023-05-03T07:34:25;103121.38;;;12.11;100.00
55490;BME280;44029;52.956;4.772;2023-05-03T07:36:50;103130.66;;;11.75;100.00
55490;BME280;44029;52.956;4.772;2023-05-03T07:39:16;103127.50;;;11.78;100.00
55490;BME280;44029;52.956;4.772;2023-05-03T07:41:42;103117.72;;;11.97;100.00
55490;BME280;44029;52.956;4.772;2023-05-03T07:44:07;103114.66;;;11.86;100.00
55490;BME280;44029;52.956;4.772;2023-05-03T07:46:32;103102.34;;;12.10;100.00
55490;BME280;44029;52.956;4.772;2023-05-03T07:49:00;103105.47;;;12.00;100.00
55490;BME280;44029;52.956;4.772;2023-05-03T07:51:25;103112.56;;;12.29;100.00
55490;BME280;44029;52.956;4.772;2023-05-03T07:53:53;103122.59;;;12.57;100.00
55490;BME280;44029;52.956;4.772;2023-05-03T07:56:18;103131.97;;;12.14;100.00
55490;BME280;44029;52.956;4.772;2023-05-03T07:58:43;103135.34;;;12.16;100.00
55490;BME280;44029;52.956;4.772;2023-05-03T08:01:09;103130.38;;;12.40;100.00
55490;BME280;44029;52.956;4.772;2023-05-03T08:03:34;103131.72;;;12.09;100.00
55490;BME280;44029;52.956;4.772;2023-05-03T08:05:59;103128.31;;;12.07;100.00
55490;BME280;44029;52.956;4.772;2023-05-03T08:08:25;103127.38;;;12.42;100.00
55490;BME280;44029;52.956;4.772;2023-05-03T08:10:53;103131.31;;;12.87;100.00
55490;BME280;44029;52.956;4.772;2023-05-03T08:13:19;103124.19;;;13.33;92.16
55490;BME280;44029;52.956;4.772;2023-05-03T08:15:46;103125.41;;;13.17;98.67
55490;BME280;44029;52.956;4.772;2023-05-03T08:18:11;103121.84;;;13.37;97.89
55490;BME280;44029;52.956;4.772;2023-05-03T08:20:37;103120.28;;;12.61;99.54
55490;BME280;44029;52.956;4.772;2023-05-03T08:23:03;103109.06;;;12.69;97.70
55490;BME280;44029;52.956;4.772;2023-05-03T08:25:29;103101.50;;;13.38;95.77
55490;BME280;44029;52.956;4.772;2023-05-03T08:27:54;103100.63;;;13.57;91.63
55490;BME280;44029;52.956;4.772;2023-05-03T08:30:19;103111.84;;;13.15;94.25
55490;BME280;44029;52.956;4.772;2023-05-03T08:32:46;103107.63;;;13.46;94.71
55490;BME280;44029;52.956;4.772;2023-05-03T08:35:11;103101.00;;;13.81;91.21
55490;BME280;44029;52.956;4.772;2023-05-03T08:37:40;103103.72;;;13.94;91.90
55490;BME280;44029;52.956;4.772;2023-05-03T08:40:06;103113.53;;;13.63;91.55
55490;BME280;44029;52.956;4.772;2023-05-03T08:42:37;103122.03;;;13.22;95.02
55490;BME280;44029;52.956;4.772;2023-05-03T08:45:03;103115.81;;;13.86;93.49
55490;BME280;44029;52.956;4.772;2023-05-03T08:47:29;103126.91;;;13.13;93.20
55490;BME280;44029;52.956;4.772;2023-05-03T08:50:02;103117.13;;;13.64;97.17
55490;BME280;44029;52.956;4.772;2023-05-03T08:52:29;103127.13;;;13.05;97.34
55490;BME280;44029;52.956;4.772;2023-05-03T08:54:55;103131.75;;;12.91;97.29
55490;BME280;44029;52.956;4.772;2023-05-03T08:57:22;103128.38;;;12.95;100.00
55490;BME280;44029;52.956;4.772;2023-05-03T08:59:49;103120.53;;;12.79;99.40
55490;BME280;44029;52.956;4.772;2023-05-03T09:02:16;103131.53;;;13.06;100.00
55490;BME280;44029;52.956;4.772;2023-05-03T09:04:42;103127.31;;;13.03;100.00
55490;BME280;44029;52.956;4.772;2023-05-03T09:07:11;103123.53;;;13.38;100.00
55490;BME280;44029;52.956;4.772;2023-05-03T09:09:37;103122.63;;;13.77;99.37
55490;BME280;44029;52.956;4.772;2023-05-03T09:12:03;103113.69;;;13.82;97.46
55490;BME280;44029;52.956;4.772;2023-05-03T09:14:29;103117.38;;;13.49;98.33
55490;BME280;44029;52.956;4.772;2023-05-03T09:16:54;103123.28;;;13.59;94.33
55490;BME280;44029;52.956;4.772;2023-05-03T09:19:20;103122.25;;;13.33;95.83
55490;BME280;44029;52.956;4.772;2023-05-03T09:21:46;103124.16;;;13.46;96.54
55490;BME280;44029;52.956;4.772;2023-05-03T09:24:19;103116.81;;;14.57;91.86
55490;BME280;44029;52.956;4.772;2023-05-03T09:26:50;103118.66;;;14.18;93.64
55490;BME280;44029;52.956;4.772;2023-05-03T09:29:32;103123.31;;;13.46;100.00
55490;BME280;44029;52.956;4.772;2023-05-03T09:32:03;103130.16;;;14.08;100.00
55490;BME280;44029;52.956;4.772;2023-05-03T09:34:33;103126.34;;;14.09;98.31
55490;BME280;44029;52.956;4.772;2023-05-03T09:36:59;103130.09;;;13.37;96.67
55490;BME280;44029;52.956;4.772;2023-05-03T09:39:25;103134.94;;;13.21;100.00
55490;BME280;44029;52.956;4.772;2023-05-03T09:41:51;103132.56;;;13.78;100.00
55490;BME280;44029;52.956;4.772;2023-05-03T09:44:16;103140.88;;;13.05;99.32
55490;BME280;44029;52.956;4.772;2023-05-03T09:47:04;103133.34;;;14.05;100.00
55490;BME280;44029;52.956;4.772;2023-05-03T09:49:30;103135.16;;;14.25;97.16
55490;BME280;44029;52.956;4.772;2023-05-03T09:51:58;103135.53;;;13.77;95.86
55490;BME280;44029;52.956;4.772;2023-05-03T09:54:24;103151.06;;;13.38;98.62
55490;BME280;44029;52.956;4.772;2023-05-03T09:56:50;103134.81;;;14.15;95.21
55490;BME280;44029;52.956;4.772;2023-05-03T09:59:16;103145.22;;;14.06;94.62
55490;BME280;44029;52.956;4.772;2023-05-03T10:01:43;103142.09;;;14.47;94.73
55490;BME280;44029;52.956;4.772;2023-05-03T10:04:09;103144.72;;;14.29;93.33
55490;BME280;44029;52.956;4.772;2023-05-03T10:06:39;103149.06;;;14.43;92.71
55490;BME280;44029;52.956;4.772;2023-05-03T10:09:25;103147.75;;;14.66;92.07
55490;BME280;44029;52.956;4.772;2023-05-03T10:11:52;103156.28;;;13.92;89.34
55490;BME280;44029;52.956;4.772;2023-05-03T10:14:21;103153.53;;;14.44;87.21
55490;BME280;44029;52.956;4.772;2023-05-03T10:16:56;103145.13;;;14.78;86.80
55490;BME280;44029;52.956;4.772;2023-05-03T10:24:29;103149.88;;;14.05;88.04
55490;BME280;44029;52.956;4.772;2023-05-03T10:26:55;103151.16;;;14.03;88.95
55490;BME280;44029;52.956;4.772;2023-05-03T10:32:05;103144.44;;;13.79;99.77
55490;BME280;44029;52.956;4.772;2023-05-03T10:34:55;103132.66;;;14.17;98.49
55490;BME280;44029;52.956;4.772;2023-05-03T10:37:24;103138.94;;;13.65;91.62
55490;BME280;44029;52.956;4.772;2023-05-03T10:39:52;103143.88;;;13.37;96.25
55490;BME280;44029;52.956;4.772;2023-05-03T10:42:20;103139.19;;;13.10;100.00
55490;BME280;44029;52.956;4.772;2023-05-03T10:44:51;103134.94;;;13.21;100.00
55490;BME280;44029;52.956;4.772;2023-05-03T10:47:19;103130.28;;;13.02;99.21
55490;BME280;44029;52.956;4.772;2023-05-03T10:49:46;103142.31;;;12.87;96.32
55490;BME280;44029;52.956;4.772;2023-05-03T10:52:44;103139.59;;;13.81;99.20
55490;BME280;44029;52.956;4.772;2023-05-03T10:55:11;103134.97;;;13.34;100.00
55490;BME280;44029;52.956;4.772;2023-05-03T10:57:39;103133.88;;;13.56;100.00
55490;BME280;44029;52.956;4.772;2023-05-03T11:00:11;103137.88;;;12.93;100.00
55490;BME280;44029;52.956;4.772;2023-05-03T11:02:47;103129.63;;;12.86;100.00
55490;BME280;44029;52.956;4.772;2023-05-03T11:05:21;103123.53;;;13.31;100.00
55490;BME280;44029;52.956;4.772;2023-05-03T11:07:48;103124.38;;;13.05;100.00
55490;BME280;44029;52.956;4.772;2023-05-03T11:10:17;103118.22;;;13.16;100.00
55490;BME280;44029;52.956;4.772;2023-05-03T11:12:42;103114.59;;;13.15;100.00
55490;BME280;44029;52.956;4.772;2023-05-03T11:15:08;103115.25;;;13.11;100.00
55490;BME280;44029;52.956;4.772;2023-05-03T11:17:36;103111.00;;;13.15;100.00
55490;BME280;44029;52.956;4.772;2023-05-03T11:20:04;103108.06;;;13.43;100.00
55490;BME280;44029;52.956;4.772;2023-05-03T11:22:33;103109.31;;;13.01;100.00
55490;BME280;44029;52.956;4.772;2023-05-03T11:24:58;103107.00;;;12.98;100.00
55490;BME280;44029;52.956;4.772;2023-05-03T11:27:23;103102.28;;;12.65;100.00
55490;BME280;44029;52.956;4.772;2023-05-03T11:29:49;103102.53;;;12.96;100.00
55490;BME280;44029;52.956;4.772;2023-05-03T11:32:16;103083.25;;;13.23;100.00
55490;BME280;44029;52.956;4.772;2023-05-03T11:34:42;103103.41;;;13.10;100.00
55490;BME280;44029;52.956;4.772;2023-05-03T11:37:08;103100.63;;;12.70;100.00
55490;BME280;44029;52.956;4.772;2023-05-03T11:39:35;103094.06;;;12.91;100.00
55490;BME280;44029;52.956;4.772;2023-05-03T11:42:04;103090.72;;;13.16;100.00
55490;BME280;44029;52.956;4.772;2023-05-03T11:44:30;103089.84;;;12.89;100.00
55490;BME280;44029;52.956;4.772;2023-05-03T11:46:56;103091.34;;;12.85;100.00
55490;BME280;44029;52.956;4.772;2023-05-03T11:49:22;103094.72;;;12.87;100.00
55490;BME280;44029;52.956;4.772;2023-05-03T11:51:49;103090.84;;;12.54;100.00
55490;BME280;44029;52.956;4.772;2023-05-03T11:54:16;103093.97;;;12.38;100.00
55490;BME280;44029;52.956;4.772;2023-05-03T11:56:41;103102.22;;;12.38;100.00
55490;BME280;44029;52.956;4.772;2023-05-03T11:59:07;103091.63;;;12.28;100.00
55490;BME280;44029;52.956;4.772;2023-05-03T12:01:32;103094.09;;;12.10;100.00
55490;BME280;44029;52.956;4.772;2023-05-03T12:03:59;103088.59;;;12.10;100.00
55490;BME280;44029;52.956;4.772;2023-05-03T12:06:26;103080.94;;;11.98;100.00
55490;BME280;44029;52.956;4.772;2023-05-03T12:08:53;103085.75;;;11.90;100.00
55490;BME280;44029;52.956;4.772;2023-05-03T12:11:19;103084.88;;;12.31;100.00
55490;BME280;44029;52.956;4.772;2023-05-03T12:13:54;103080.31;;;12.91;100.00
55490;BME280;44029;52.956;4.772;2023-05-03T12:16:20;103080.75;;;12.82;100.00
55490;BME280;44029;52.956;4.772;2023-05-03T12:18:52;103073.13;;;13.24;100.00
55490;BME280;44029;52.956;4.772;2023-05-03T12:21:22;103083.06;;;12.78;100.00
55490;BME280;44029;52.956;4.772;2023-05-03T12:23:48;103088.00;;;12.14;100.00
55490;BME280;44029;52.956;4.772;2023-05-03T12:26:16;103077.44;;;12.18;100.00
55490;BME280;44029;52.956;4.772;2023-05-03T12:28:42;103083.16;;;12.30;100.00
55490;BME280;44029;52.956;4.772;2023-05-03T12:31:08;103076.72;;;12.03;100.00
55490;BME280;44029;52.956;4.772;2023-05-03T12:33:34;103069.50;;;11.95;100.00
55490;BME280;44029;52.956;4.772;2023-05-03T12:35:59;103076.81;;;12.16;100.00
55490;BME280;44029;52.956;4.772;2023-05-03T12:38:26;103073.78;;;12.04;100.00
55490;BME280;44029;52.956;4.772;2023-05-03T12:40:51;103071.44;;;12.01;100.00
55490;BME280;44029;52.956;4.772;2023-05-03T12:43:17;103058.84;;;12.27;100.00
55490;BME280;44029;52.956;4.772;2023-05-03T12:45:43;103064.13;;;11.80;100.00
55490;BME280;44029;52.956;4.772;2023-05-03T12:48:08;103060.34;;;12.29;100.00
55490;BME280;44029;52.956;4.772;2023-05-03T12:50:34;103061.19;;;12.30;100.00
55490;BME280;44029;52.956;4.772;2023-05-03T12:52:59;103051.25;;;12.35;100.00
55490;BME280;44029;52.956;4.772;2023-05-03T12:55:24;103051.66;;;12.26;100.00